Terminal Aerodrome Forecast
Issued by NWS Sterling, VA

Current Version | Previous Version | Text Only | Print | Product List | Glossary Off
Versions: 1 2 3 4 5 6 7 8 9 10 11 12 13 14 15 16 17 18 19 20 21 22 23

000
FTUS41 KLWX 250700 AAA
TAFIAD
TAF AMD
KIAD 250754Z 2508/2612 30007KT P6SM -SHRA OVC015
     FM250900 30007KT P6SM OVC060
     FM251200 29010KT P6SM SCT250
     FM251500 29013G21KT P6SM SCT035
     FM252100 29010G18KT P6SM FEW250
     FM260000 29006KT P6SM FEW250
     FM260600 00000KT P6SM SKC=

USA.gov is the U.S. government's official web portal to all federal, state and local government web resources and services.